createdAt,value
2023-04-13T00:00:03.500Z,0.00
2023-04-13T00:01:03.455Z,0.00
2023-04-13T00:02:03.600Z,0.00
2023-04-13T00:03:03.958Z,0.00
2023-04-13T00:04:04.282Z,0.00
2023-04-13T00:05:03.447Z,0.00
2023-04-13T00:06:03.410Z,0.00
2023-04-13T00:07:03.427Z,0.00
2023-04-13T00:08:03.486Z,0.00
2023-04-13T00:09:03.416Z,0.00
2023-04-13T00:10:03.373Z,0.00
2023-04-13T00:11:03.546Z,0.00
2023-04-13T00:12:03.329Z,0.00
2023-04-13T00:13:03.317Z,0.00
2023-04-13T00:14:03.307Z,0.00
2023-04-13T00:15:03.305Z,0.00
2023-04-13T00:16:03.277Z,0.00
2023-04-13T00:17:03.464Z,0.00
2023-04-13T00:18:03.327Z,0.00
2023-04-13T00:19:03.272Z,0.00
2023-04-13T00:20:03.243Z,0.00
2023-04-13T00:21:03.233Z,0.00
2023-04-13T00:22:03.232Z,0.00
2023-04-13T00:23:03.210Z,0.00
2023-04-13T00:24:03.196Z,0.00
2023-04-13T00:25:03.199Z,0.00
2023-04-13T00:26:03.176Z,0.00
2023-04-13T00:27:03.160Z,0.00
2023-04-13T00:28:03.151Z,0.00
2023-04-13T00:29:03.127Z,0.00
2023-04-13T00:30:03.121Z,0.00
2023-04-13T00:31:03.134Z,0.00
2023-04-13T00:32:03.101Z,0.00
2023-04-13T00:33:03.111Z,0.00
2023-04-13T00:34:03.095Z,0.00
2023-04-13T00:35:03.088Z,0.00
2023-04-13T00:36:03.323Z,0.00
2023-04-13T00:37:03.078Z,0.00
2023-04-13T00:38:03.450Z,0.00
2023-04-13T00:39:03.012Z,0.00
2023-04-13T00:40:03.007Z,0.00
2023-04-13T00:41:03.009Z,0.00
2023-04-13T00:42:02.984Z,0.00
2023-04-13T00:43:02.988Z,0.00
2023-04-13T00:44:02.945Z,0.00
2023-04-13T00:45:02.946Z,0.00
2023-04-13T00:46:02.991Z,0.00
2023-04-13T00:47:02.924Z,0.00
2023-04-13T00:48:02.935Z,0.00
2023-04-13T00:49:02.945Z,0.00
2023-04-13T00:50:02.891Z,0.00
2023-04-13T00:51:02.906Z,0.00
2023-04-13T00:52:02.885Z,0.00
2023-04-13T00:53:02.843Z,0.00
2023-04-13T00:54:02.846Z,0.00
2023-04-13T00:55:02.868Z,0.00
2023-04-13T00:56:02.820Z,0.00
2023-04-13T00:57:02.823Z,0.00
2023-04-13T00:58:02.825Z,0.00
2023-04-13T00:59:02.786Z,0.00
2023-04-13T01:00:02.767Z,0.00
2023-04-13T01:01:02.756Z,0.00
2023-04-13T01:02:02.865Z,0.00
2023-04-13T01:03:02.913Z,0.00
2023-04-13T01:04:02.760Z,0.00
2023-04-13T01:05:02.736Z,0.00
2023-04-13T01:06:02.720Z,0.00
2023-04-13T01:07:02.727Z,0.00
2023-04-13T01:08:02.679Z,0.00
2023-04-13T01:09:02.674Z,0.00
2023-04-13T01:10:02.648Z,0.00
2023-04-13T01:11:02.648Z,0.00
2023-04-13T01:12:02.630Z,0.00
2023-04-13T01:13:02.637Z,0.00
2023-04-13T01:14:02.624Z,0.00
2023-04-13T01:15:02.596Z,0.00
2023-04-13T01:16:02.629Z,0.00
2023-04-13T01:17:02.564Z,0.00
2023-04-13T01:18:02.588Z,0.00
2023-04-13T01:19:02.553Z,0.00
2023-04-13T01:20:02.528Z,0.00
2023-04-13T01:21:02.528Z,0.00
2023-04-13T01:22:02.509Z,0.00
2023-04-13T01:23:02.535Z,0.00
2023-04-13T01:24:02.493Z,0.00
2023-04-13T01:25:02.473Z,0.00
2023-04-13T01:26:02.458Z,0.00
2023-04-13T01:27:02.443Z,0.00
2023-04-13T01:28:02.427Z,0.00
2023-04-13T01:29:02.433Z,0.00
2023-04-13T01:30:02.425Z,0.00
2023-04-13T01:31:02.428Z,0.00
2023-04-13T01:32:02.403Z,0.00
2023-04-13T01:33:02.490Z,0.00
2023-04-13T01:34:02.363Z,0.00
2023-04-13T01:35:02.346Z,0.00
2023-04-13T01:36:02.347Z,0.00
2023-04-13T01:37:02.381Z,0.00
2023-04-13T01:38:02.321Z,0.00
2023-04-13T01:39:02.393Z,0.00
2023-04-13T01:40:02.501Z,0.00
2023-04-13T01:41:02.318Z,0.00
2023-04-13T01:42:02.452Z,0.00
2023-04-13T01:43:02.268Z,0.00
2023-04-13T01:44:02.439Z,0.00
2023-04-13T01:45:02.284Z,0.00
2023-04-13T01:46:02.225Z,0.00
2023-04-13T01:47:02.312Z,0.00
2023-04-13T01:48:02.280Z,0.00
2023-04-13T01:49:02.241Z,0.00
2023-04-13T01:50:02.195Z,0.00
2023-04-13T01:51:02.212Z,0.00
2023-04-13T01:52:02.179Z,0.00
2023-04-13T01:53:02.130Z,0.00
2023-04-13T01:54:02.399Z,0.00
2023-04-13T01:55:02.131Z,0.00
2023-04-13T01:56:02.109Z,0.00
2023-04-13T01:57:02.154Z,0.00
2023-04-13T01:58:02.150Z,0.00
2023-04-13T01:59:02.095Z,0.00
2023-04-13T02:00:02.072Z,0.00
2023-04-13T02:01:02.120Z,0.00
2023-04-13T02:02:02.143Z,0.00
2023-04-13T02:03:02.141Z,0.00
2023-04-13T02:04:02.418Z,0.00
2023-04-13T02:05:02.037Z,0.00
2023-04-13T02:06:01.970Z,0.00
2023-04-13T02:07:01.968Z,0.00
2023-04-13T02:08:02.011Z,0.00
2023-04-13T02:09:01.935Z,0.00
2023-04-13T02:10:01.946Z,0.00
2023-04-13T02:11:02.020Z,0.00
2023-04-13T02:12:01.899Z,0.00
2023-04-13T02:13:02.012Z,0.00
2023-04-13T02:14:01.880Z,0.00
2023-04-13T02:15:01.878Z,0.00
2023-04-13T02:16:01.950Z,0.00
2023-04-13T02:17:01.851Z,0.00
2023-04-13T02:18:01.972Z,0.00
2023-04-13T02:19:01.844Z,0.00
2023-04-13T02:20:01.893Z,0.00
2023-04-13T02:21:02.002Z,0.00
2023-04-13T02:22:01.783Z,0.00
2023-04-13T02:23:01.780Z,0.00
2023-04-13T02:24:01.758Z,0.00
2023-04-13T02:25:01.761Z,0.00
2023-04-13T02:26:01.761Z,0.00
2023-04-13T02:27:01.766Z,0.00
2023-04-13T02:28:01.732Z,0.00
2023-04-13T02:29:01.728Z,0.00
2023-04-13T02:30:01.714Z,0.00
2023-04-13T02:31:01.770Z,0.00
2023-04-13T02:32:01.754Z,0.00
2023-04-13T02:33:01.643Z,0.00
2023-04-13T02:34:01.631Z,0.00
2023-04-13T02:35:01.609Z,0.00
2023-04-13T02:36:01.627Z,0.00
2023-04-13T02:37:01.614Z,0.00
2023-04-13T02:38:01.691Z,0.00
2023-04-13T02:39:01.586Z,0.00
2023-04-13T02:40:01.604Z,0.00
2023-04-13T02:41:01.561Z,0.00
2023-04-13T02:42:01.538Z,0.00
2023-04-13T02:43:01.755Z,0.00
2023-04-13T02:44:01.760Z,0.00
2023-04-13T02:45:01.514Z,0.00
2023-04-13T02:46:01.564Z,0.00
2023-04-13T02:47:01.516Z,0.00
2023-04-13T02:48:01.501Z,0.00
2023-04-13T02:49:01.442Z,0.00
2023-04-13T02:50:01.476Z,0.00
2023-04-13T02:51:01.449Z,0.00
2023-04-13T02:52:01.422Z,0.00
2023-04-13T02:53:01.405Z,0.00
2023-04-13T02:54:01.517Z,0.00
2023-04-13T02:55:01.400Z,0.00
2023-04-13T02:56:01.406Z,0.00
2023-04-13T02:57:01.565Z,0.00
2023-04-13T02:58:01.361Z,0.00
2023-04-13T02:59:01.358Z,0.00
2023-04-13T03:00:01.336Z,0.00
2023-04-13T03:01:01.360Z,0.00
2023-04-13T03:02:01.295Z,0.00
2023-04-13T03:03:01.295Z,0.00
2023-04-13T03:04:01.554Z,0.00
2023-04-13T03:05:01.372Z,0.00
2023-04-13T03:06:01.261Z,0.00
2023-04-13T03:07:01.251Z,0.00
2023-04-13T03:08:01.221Z,0.00
2023-04-13T03:09:01.204Z,0.00
2023-04-13T03:10:01.195Z,0.00
2023-04-13T03:11:01.183Z,0.00
2023-04-13T03:12:01.188Z,0.00
2023-04-13T03:13:01.156Z,0.00
2023-04-13T03:14:01.527Z,0.00
2023-04-13T03:15:01.168Z,0.00
2023-04-13T03:16:01.111Z,0.00
2023-04-13T03:17:01.164Z,0.00
2023-04-13T03:18:01.129Z,0.00
2023-04-13T03:19:01.083Z,0.00
2023-04-13T03:20:01.073Z,0.00
2023-04-13T03:21:01.065Z,0.00
2023-04-13T03:22:01.052Z,0.00
2023-04-13T03:23:01.041Z,0.00
2023-04-13T03:24:01.134Z,0.00
2023-04-13T03:25:01.027Z,0.00
2023-04-13T03:26:01.019Z,0.00
2023-04-13T03:30:00.956Z,0.00
2023-04-13T03:31:00.962Z,0.00
2023-04-13T03:32:00.943Z,0.00
2023-04-13T03:33:01.004Z,0.00
2023-04-13T03:34:01.116Z,0.00
2023-04-13T03:35:00.906Z,0.00
2023-04-13T03:36:00.897Z,0.00
2023-04-13T03:37:00.858Z,0.00
2023-04-13T03:38:00.859Z,0.00
2023-04-13T03:39:00.867Z,0.00
2023-04-13T03:40:00.819Z,0.00
2023-04-13T03:41:00.832Z,0.00
2023-04-13T03:42:00.808Z,0.00
2023-04-13T03:43:00.817Z,0.00
2023-04-13T03:44:01.042Z,0.00
2023-04-13T03:45:00.772Z,0.00
2023-04-13T03:46:00.802Z,0.00
2023-04-13T03:47:00.757Z,0.00
2023-04-13T03:48:00.758Z,0.00
2023-04-13T03:49:00.732Z,0.00
2023-04-13T03:50:00.759Z,0.00
2023-04-13T03:51:00.706Z,0.00
2023-04-13T03:52:00.882Z,0.00
2023-04-13T03:53:00.685Z,0.00
2023-04-13T03:54:00.944Z,0.00
2023-04-13T03:55:00.700Z,0.00
2023-04-13T03:56:00.639Z,0.00
2023-04-13T03:57:00.632Z,0.00
2023-04-13T03:58:00.608Z,0.00
2023-04-13T03:59:00.620Z,0.00
2023-04-13T04:00:00.594Z,0.00
2023-04-13T04:01:00.574Z,0.00
2023-04-13T04:02:00.588Z,0.00
2023-04-13T04:03:00.710Z,0.00
2023-04-13T04:04:00.913Z,0.00
2023-04-13T04:05:00.568Z,0.00
2023-04-13T04:06:00.722Z,0.00
2023-04-13T04:07:00.495Z,0.00
2023-04-13T04:08:00.487Z,0.00
2023-04-13T04:09:00.485Z,0.00
2023-04-13T04:10:00.453Z,0.00
2023-04-13T04:11:00.453Z,0.00
2023-04-13T04:12:00.448Z,0.00
2023-04-13T04:13:00.428Z,0.00
2023-04-13T04:14:00.716Z,0.00
2023-04-13T04:15:00.422Z,0.00
2023-04-13T04:16:00.425Z,0.00
2023-04-13T04:17:00.377Z,0.00
2023-04-13T04:18:00.483Z,0.00
2023-04-13T04:19:00.394Z,0.00
2023-04-13T04:20:00.349Z,0.00
2023-04-13T04:21:00.330Z,0.00
2023-04-13T04:22:00.320Z,0.00
2023-04-13T04:23:00.309Z,0.00
2023-04-13T04:24:00.620Z,0.00
2023-04-13T04:25:00.372Z,0.00
2023-04-13T04:26:00.284Z,0.00
2023-04-13T04:27:00.264Z,0.00
2023-04-13T04:28:00.243Z,0.00
2023-04-13T04:29:00.258Z,0.00
2023-04-13T04:30:00.256Z,0.00
2023-04-13T04:31:00.221Z,0.00
2023-04-13T04:32:00.298Z,0.00
2023-04-13T04:33:00.319Z,0.00
2023-04-13T04:34:00.340Z,0.00
2023-04-13T04:35:00.181Z,0.00
2023-04-13T04:36:00.160Z,0.00
2023-04-13T04:37:03.207Z,0.00
2023-04-13T04:38:00.140Z,0.00
2023-04-13T04:39:00.125Z,5.63
2023-04-13T04:40:00.315Z,5.63
2023-04-13T04:41:00.118Z,5.63
2023-04-13T04:42:00.124Z,5.63
2023-04-13T04:43:00.083Z,5.63
2023-04-13T04:44:00.446Z,5.63
2023-04-13T04:45:00.062Z,5.63
2023-04-13T04:46:00.112Z,5.63
2023-04-13T04:47:00.020Z,5.63
2023-04-13T04:48:00.006Z,5.63
2023-04-13T04:48:59.987Z,5.63
2023-04-13T04:49:59.972Z,5.63
2023-04-13T04:51:00.031Z,5.63
2023-04-13T04:51:59.962Z,5.63
2023-04-13T04:52:59.962Z,5.63
2023-04-13T04:54:00.067Z,5.63
2023-04-13T04:54:59.941Z,5.63
2023-04-13T04:55:59.903Z,5.63
2023-04-13T04:56:59.896Z,5.63
2023-04-13T04:57:59.901Z,5.63
2023-04-13T04:59:00.012Z,11.25
2023-04-13T04:59:59.849Z,11.25
2023-04-13T05:01:00.124Z,11.25
2023-04-13T05:01:59.835Z,11.25
2023-04-13T05:02:59.852Z,11.25
2023-04-13T05:03:59.797Z,11.25
2023-04-13T05:04:59.818Z,11.25
2023-04-13T05:05:59.754Z,11.25
2023-04-13T05:06:59.830Z,16.88
2023-04-13T05:07:59.742Z,16.88
2023-04-13T05:08:59.941Z,16.88
2023-04-13T05:09:59.734Z,16.88
2023-04-13T05:10:59.706Z,16.88
2023-04-13T05:11:59.695Z,16.88
2023-04-13T05:12:59.678Z,16.88
2023-04-13T05:13:59.653Z,16.88
2023-04-13T05:14:59.658Z,16.88
2023-04-13T05:15:59.643Z,16.88
2023-04-13T05:16:59.616Z,16.88
2023-04-13T05:17:59.666Z,16.88
2023-04-13T05:18:59.831Z,16.88
2023-04-13T05:19:59.592Z,16.88
2023-04-13T05:20:59.571Z,16.88
2023-04-13T05:21:59.561Z,16.88
2023-04-13T05:22:59.576Z,16.88
2023-04-13T05:23:59.539Z,16.88
2023-04-13T05:24:59.525Z,16.88
2023-04-13T05:25:59.499Z,16.88
2023-04-13T05:26:59.510Z,16.88
2023-04-13T05:27:59.490Z,16.88
2023-04-13T05:28:59.711Z,16.88
2023-04-13T05:29:59.468Z,16.88
2023-04-13T05:30:59.466Z,16.88
2023-04-13T05:31:59.643Z,16.88
2023-04-13T05:32:59.512Z,16.88
2023-04-13T05:33:59.410Z,16.88
2023-04-13T05:34:59.408Z,16.88
2023-04-13T05:35:59.421Z,16.88
2023-04-13T05:36:59.406Z,16.88
2023-04-13T05:37:59.363Z,16.88
2023-04-13T05:38:59.725Z,16.88
2023-04-13T05:39:59.331Z,16.88
2023-04-13T05:40:59.316Z,16.88
2023-04-13T05:41:59.321Z,16.88
2023-04-13T05:42:59.309Z,22.50
2023-04-13T05:43:59.328Z,22.50
2023-04-13T05:44:59.299Z,22.50
2023-04-13T05:45:59.331Z,22.50
2023-04-13T05:46:59.272Z,22.50
2023-04-13T05:47:59.321Z,22.50
2023-04-13T05:48:59.534Z,22.50
2023-04-13T05:49:59.237Z,22.50
2023-04-13T05:50:59.210Z,22.50
2023-04-13T05:51:59.203Z,22.50
2023-04-13T05:52:59.219Z,22.50
2023-04-13T05:53:59.191Z,22.50
2023-04-13T05:54:59.210Z,22.50
2023-04-13T05:55:59.162Z,28.13
2023-04-13T05:56:59.152Z,28.13
2023-04-13T05:59:59.094Z,33.75
2023-04-13T06:00:59.082Z,33.75
2023-04-13T06:01:59.153Z,33.75
2023-04-13T06:02:59.305Z,39.38
2023-04-13T06:03:59.138Z,39.38
2023-04-13T06:04:59.117Z,39.38
2023-04-13T06:05:59.057Z,33.75
2023-04-13T06:06:59.013Z,33.75
2023-04-13T06:07:58.994Z,33.75
2023-04-13T06:08:59.202Z,33.75
2023-04-13T06:09:58.983Z,33.75
2023-04-13T06:10:58.993Z,33.75
2023-04-13T06:11:58.949Z,33.75
2023-04-13T06:12:58.946Z,33.75
2023-04-13T06:14:00.172Z,33.75
2023-04-13T06:14:58.917Z,33.75
2023-04-13T06:15:58.897Z,33.75
2023-04-13T06:16:58.940Z,33.75
2023-04-13T06:17:58.937Z,39.38
2023-04-13T06:18:59.055Z,39.38
2023-04-13T06:19:58.871Z,45.00
2023-04-13T06:20:59.062Z,45.00
2023-04-13T06:21:58.835Z,45.00
2023-04-13T06:22:58.833Z,45.00
2023-04-13T06:23:58.829Z,50.63
2023-04-13T06:24:58.820Z,50.63
2023-04-13T06:25:58.793Z,56.25
2023-04-13T06:26:58.789Z,56.25
2023-04-13T06:27:58.748Z,56.25
2023-04-13T06:28:59.042Z,61.88
2023-04-13T06:29:58.735Z,61.88
2023-04-13T06:30:58.763Z,61.88
2023-04-13T06:31:58.721Z,61.88
2023-04-13T06:32:58.794Z,61.88
2023-04-13T06:33:58.701Z,61.88
2023-04-13T06:34:58.677Z,67.50
2023-04-13T06:35:58.686Z,67.50
2023-04-13T06:36:58.654Z,67.50
2023-04-13T06:37:58.682Z,67.50
2023-04-13T06:38:58.789Z,61.88
2023-04-13T06:39:58.627Z,67.50
2023-04-13T06:40:58.631Z,67.50
2023-04-13T06:41:58.592Z,67.50
2023-04-13T06:42:58.640Z,67.50
2023-04-13T06:43:58.626Z,67.50
2023-04-13T06:44:58.572Z,67.50
2023-04-13T06:45:58.612Z,78.75
2023-04-13T06:46:58.599Z,90.00
2023-04-13T06:47:58.595Z,95.63
2023-04-13T06:48:58.802Z,112.50
2023-04-13T06:49:58.501Z,101.25
2023-04-13T06:50:58.481Z,106.88
2023-04-13T06:51:58.524Z,112.50
2023-04-13T06:53:00.096Z,140.63
2023-04-13T06:53:58.655Z,135.00
2023-04-13T06:54:58.453Z,151.88
2023-04-13T06:55:58.439Z,168.75
2023-04-13T06:56:58.608Z,168.75
2023-04-13T06:57:58.410Z,174.38
2023-04-13T06:59:00.840Z,174.38
2023-04-13T06:59:58.397Z,180.00
2023-04-13T07:00:58.481Z,174.38
2023-04-13T07:01:58.537Z,180.00
2023-04-13T07:02:58.777Z,185.63
2023-04-13T07:03:58.386Z,191.25
2023-04-13T07:04:58.416Z,196.88
2023-04-13T07:05:58.314Z,185.63
2023-04-13T07:06:58.313Z,157.50
2023-04-13T07:07:58.342Z,180.00
2023-04-13T07:08:58.481Z,180.00
2023-04-13T07:10:00.385Z,225.00
2023-04-13T07:10:58.292Z,202.50
2023-04-13T07:11:58.269Z,208.13
2023-04-13T07:12:58.274Z,264.38
2023-04-13T07:13:58.248Z,247.50
2023-04-13T07:14:58.467Z,247.50
2023-04-13T07:15:58.226Z,219.38
2023-04-13T07:16:58.212Z,253.13
2023-04-13T07:17:58.235Z,213.75
2023-04-13T07:18:58.291Z,174.38
2023-04-13T07:19:58.196Z,106.88
2023-04-13T07:20:58.179Z,84.38
2023-04-13T07:21:58.166Z,118.13
2023-04-13T07:22:58.161Z,174.38
2023-04-13T07:23:58.163Z,202.50
2023-04-13T07:24:58.145Z,129.38
2023-04-13T07:25:58.123Z,90.00
2023-04-13T07:26:58.113Z,95.63
2023-04-13T07:27:58.139Z,95.63
2023-04-13T07:28:58.381Z,78.75
2023-04-13T07:29:58.092Z,78.75
2023-04-13T07:30:58.231Z,73.13
2023-04-13T07:31:58.184Z,78.75
2023-04-13T07:32:58.083Z,101.25
2023-04-13T07:33:58.274Z,157.50
2023-04-13T07:34:58.053Z,84.38
2023-04-13T07:35:58.034Z,84.38
2023-04-13T07:36:58.105Z,95.63
2023-04-13T07:37:58.014Z,95.63
2023-04-13T07:38:58.240Z,84.38
2023-04-13T07:39:58.229Z,90.00
2023-04-13T07:40:57.978Z,95.63
2023-04-13T07:41:57.995Z,118.13
2023-04-13T07:42:57.967Z,95.63
2023-04-13T07:43:57.944Z,112.50
2023-04-13T07:44:57.976Z,140.63
2023-04-13T07:45:57.947Z,146.25
2023-04-13T07:46:58.420Z,118.13
2023-04-13T07:47:57.984Z,101.25
2023-04-13T07:48:57.944Z,106.88
2023-04-13T07:49:57.946Z,135.00
2023-04-13T07:50:57.866Z,118.13
2023-04-13T07:51:57.887Z,129.38
2023-04-13T07:52:57.884Z,118.13
2023-04-13T07:53:57.864Z,106.88
2023-04-13T07:54:57.850Z,101.25
2023-04-13T07:55:57.829Z,112.50
2023-04-13T07:56:57.832Z,106.88
2023-04-13T07:57:57.817Z,90.00
2023-04-13T07:58:57.953Z,84.38
2023-04-13T07:59:57.822Z,95.63
2023-04-13T08:00:57.771Z,90.00
2023-04-13T08:01:57.831Z,84.38
2023-04-13T08:02:57.966Z,95.63
2023-04-13T08:03:57.931Z,101.25
2023-04-13T08:04:57.813Z,84.38
2023-04-13T08:05:57.743Z,84.38
2023-04-13T08:06:57.732Z,78.75
2023-04-13T08:07:57.695Z,78.75
2023-04-13T08:08:57.861Z,101.25
2023-04-13T08:09:57.703Z,101.25
2023-04-13T08:10:57.667Z,112.50
2023-04-13T08:11:57.666Z,135.00
2023-04-13T08:12:57.845Z,101.25
2023-04-13T08:13:57.672Z,106.88
2023-04-13T08:14:57.667Z,168.75
2023-04-13T08:15:57.658Z,168.75
2023-04-13T08:16:57.727Z,123.75
2023-04-13T08:17:57.639Z,112.50
2023-04-13T08:18:57.875Z,112.50
2023-04-13T08:19:57.603Z,112.50
2023-04-13T08:20:57.625Z,118.13
2023-04-13T08:21:57.576Z,129.38
2023-04-13T08:22:57.583Z,298.13
2023-04-13T08:23:57.549Z,112.50
2023-04-13T08:24:57.549Z,112.50
2023-04-13T08:25:57.565Z,106.88
2023-04-13T08:26:57.542Z,112.50
2023-04-13T08:27:57.549Z,191.25
2023-04-13T08:28:57.838Z,303.75
2023-04-13T08:29:57.523Z,180.00
2023-04-13T08:30:57.509Z,174.38
2023-04-13T08:31:57.555Z,118.13
2023-04-13T08:32:57.474Z,101.25
2023-04-13T08:33:57.789Z,118.13
2023-04-13T08:34:57.489Z,118.13
2023-04-13T08:35:57.457Z,123.75
2023-04-13T08:36:57.458Z,174.38
2023-04-13T08:37:57.428Z,174.38
2023-04-13T08:38:57.657Z,236.25
2023-04-13T08:39:57.406Z,163.13
2023-04-13T08:40:57.602Z,168.75
2023-04-13T08:41:57.385Z,168.75
2023-04-13T08:42:57.396Z,236.25
2023-04-13T08:43:57.630Z,247.50
2023-04-13T08:44:57.352Z,326.25
2023-04-13T08:45:57.430Z,303.75
2023-04-13T08:46:57.339Z,258.75
2023-04-13T08:47:57.387Z,225.00
2023-04-13T08:48:57.317Z,438.75
2023-04-13T08:49:57.312Z,511.88
2023-04-13T08:50:57.310Z,388.13
2023-04-13T08:51:57.288Z,815.63
2023-04-13T08:52:57.282Z,1063.13
2023-04-13T08:53:57.291Z,573.75
2023-04-13T08:54:57.279Z,1040.63
2023-04-13T08:55:57.582Z,315.00
2023-04-13T08:56:57.230Z,579.38
2023-04-13T08:57:57.483Z,185.63
2023-04-13T08:58:57.618Z,185.63
2023-04-13T08:59:57.226Z,196.88
2023-04-13T09:00:57.230Z,180.00
2023-04-13T09:01:57.232Z,191.25
2023-04-13T09:03:04.763Z,270.00
2023-04-13T09:03:57.366Z,135.00
2023-04-13T09:04:57.232Z,123.75
2023-04-13T09:05:57.161Z,135.00
2023-04-13T09:06:57.257Z,140.63
2023-04-13T09:07:57.189Z,157.50
2023-04-13T09:08:57.605Z,151.88
2023-04-13T09:09:57.158Z,151.88
2023-04-13T09:10:57.137Z,163.13
2023-04-13T09:11:57.116Z,185.63
2023-04-13T09:12:57.094Z,168.75
2023-04-13T09:13:57.537Z,180.00
2023-04-13T09:14:57.098Z,157.50
2023-04-13T09:15:57.101Z,168.75
2023-04-13T09:16:57.084Z,185.63
2023-04-13T09:17:57.101Z,241.88
2023-04-13T09:18:57.375Z,247.50
2023-04-13T09:19:57.036Z,253.13
2023-04-13T09:20:57.073Z,264.38
2023-04-13T09:21:57.072Z,264.38
2023-04-13T09:22:57.049Z,264.38
2023-04-13T09:23:57.019Z,264.38
2023-04-13T09:24:57.021Z,258.75
2023-04-13T09:25:57.008Z,253.13
2023-04-13T09:26:56.991Z,247.50
2023-04-13T09:27:57.032Z,253.13
2023-04-13T09:28:57.185Z,286.88
2023-04-13T09:29:56.983Z,292.50
2023-04-13T09:30:57.026Z,236.25
2023-04-13T09:31:57.201Z,196.88
2023-04-13T09:32:56.947Z,185.63
2023-04-13T09:33:57.008Z,191.25
2023-04-13T09:34:56.934Z,191.25
2023-04-13T09:35:56.960Z,180.00
2023-04-13T09:36:58.793Z,180.00
2023-04-13T09:37:56.896Z,191.25
2023-04-13T09:38:56.970Z,202.50
2023-04-13T09:39:56.905Z,174.38
2023-04-13T09:40:56.870Z,146.25
2023-04-13T09:41:56.854Z,135.00
2023-04-13T09:42:56.876Z,140.63
2023-04-13T09:43:56.961Z,135.00
2023-04-13T09:44:56.887Z,118.13
2023-04-13T09:45:56.847Z,118.13
2023-04-13T09:46:56.848Z,129.38
2023-04-13T09:47:56.821Z,135.00
2023-04-13T09:48:56.905Z,140.63
2023-04-13T09:49:56.801Z,140.63
2023-04-13T09:50:56.795Z,135.00
2023-04-13T09:51:56.800Z,123.75
2023-04-13T09:52:56.764Z,118.13
2023-04-13T09:53:56.744Z,123.75
2023-04-13T09:54:56.794Z,112.50
2023-04-13T09:55:56.737Z,101.25
2023-04-13T09:56:56.735Z,106.88
2023-04-13T09:57:56.738Z,101.25
2023-04-13T09:58:56.763Z,95.63
2023-04-13T09:59:56.720Z,95.63
2023-04-13T10:00:56.712Z,90.00
2023-04-13T10:01:56.730Z,90.00
2023-04-13T10:02:57.002Z,90.00
2023-04-13T10:03:56.739Z,90.00
2023-04-13T10:04:57.027Z,95.63
2023-04-13T10:06:00.089Z,95.63
2023-04-13T10:06:56.730Z,95.63
2023-04-13T10:07:56.642Z,90.00
2023-04-13T10:08:56.624Z,101.25
2023-04-13T10:09:56.625Z,112.50
2023-04-13T10:10:56.664Z,112.50
2023-04-13T10:11:56.604Z,95.63
2023-04-13T10:12:56.583Z,84.38
2023-04-13T10:13:56.657Z,84.38
2023-04-13T10:14:56.571Z,118.13
2023-04-13T10:15:58.687Z,112.50
2023-04-13T10:16:56.565Z,84.38
2023-04-13T10:17:56.696Z,73.13
2023-04-13T10:18:56.685Z,67.50
2023-04-13T10:19:56.523Z,67.50
2023-04-13T10:20:56.516Z,61.88
2023-04-13T10:21:56.510Z,61.88
2023-04-13T10:22:56.518Z,61.88
2023-04-13T10:23:56.629Z,67.50
2023-04-13T10:24:56.490Z,67.50
2023-04-13T10:25:56.496Z,67.50
2023-04-13T10:26:56.585Z,73.13
2023-04-13T10:27:56.447Z,73.13
2023-04-13T10:28:56.459Z,73.13
2023-04-13T10:29:56.448Z,78.75
2023-04-13T10:30:56.422Z,78.75
2023-04-13T10:31:56.471Z,78.75
2023-04-13T10:32:56.508Z,78.75
2023-04-13T10:33:56.395Z,78.75
2023-04-13T10:34:56.385Z,78.75
2023-04-13T10:35:56.401Z,84.38
2023-04-13T10:36:56.416Z,84.38
2023-04-13T10:37:56.401Z,84.38
2023-04-13T10:38:56.381Z,84.38
2023-04-13T10:39:56.445Z,84.38
2023-04-13T10:40:56.354Z,90.00
2023-04-13T10:41:56.342Z,95.63
2023-04-13T10:42:56.319Z,101.25
2023-04-13T10:43:56.390Z,95.63
2023-04-13T10:44:56.323Z,95.63
2023-04-13T10:45:56.283Z,90.00
2023-04-13T10:46:56.334Z,84.38
2023-04-13T10:47:56.331Z,84.38
2023-04-13T10:48:56.304Z,84.38
2023-04-13T10:49:56.273Z,84.38
2023-04-13T10:50:56.268Z,90.00
2023-04-13T10:51:56.243Z,90.00
2023-04-13T10:52:56.335Z,90.00
2023-04-13T10:53:56.218Z,95.63
2023-04-13T10:54:56.246Z,90.00
2023-04-13T10:55:56.188Z,90.00
2023-04-13T10:56:56.192Z,90.00
2023-04-13T10:57:56.187Z,84.38
2023-04-13T10:58:56.201Z,78.75
2023-04-13T10:59:59.297Z,78.75
2023-04-13T11:00:56.156Z,78.75
2023-04-13T11:01:56.179Z,78.75
2023-04-13T11:02:56.280Z,78.75
2023-04-13T11:04:04.481Z,78.75
2023-04-13T11:04:56.420Z,78.75
2023-04-13T11:05:56.185Z,84.38
2023-04-13T11:06:56.098Z,84.38
2023-04-13T11:07:56.076Z,84.38
2023-04-13T11:08:56.084Z,90.00
2023-04-13T11:09:56.135Z,90.00
2023-04-13T11:11:05.892Z,95.63
2023-04-13T11:11:56.034Z,101.25
2023-04-13T11:12:56.082Z,101.25
2023-04-13T11:13:56.286Z,101.25
2023-04-13T11:14:56.151Z,101.25
2023-04-13T11:15:56.264Z,101.25
2023-04-13T11:16:58.326Z,95.63
2023-04-13T11:17:56.042Z,95.63
2023-04-13T11:18:55.985Z,90.00
2023-04-13T11:19:56.094Z,90.00
2023-04-13T11:20:56.071Z,84.38
2023-04-13T11:21:55.960Z,84.38
2023-04-13T11:22:55.951Z,84.38
2023-04-13T11:23:55.977Z,90.00
2023-04-13T11:24:55.934Z,95.63
2023-04-13T11:25:56.130Z,101.25
2023-04-13T11:26:55.912Z,101.25
2023-04-13T11:27:55.921Z,106.88
2023-04-13T11:28:55.904Z,112.50
2023-04-13T11:29:55.913Z,118.13
2023-04-13T11:30:55.916Z,118.13
2023-04-13T11:31:55.907Z,123.75
2023-04-13T11:32:55.930Z,135.00
2023-04-13T11:33:55.827Z,135.00
2023-04-13T11:34:55.866Z,140.63
2023-04-13T11:35:55.816Z,140.63
2023-04-13T11:36:55.834Z,140.63
2023-04-13T11:37:55.875Z,140.63
2023-04-13T11:38:55.812Z,135.00
2023-04-13T11:39:55.822Z,129.38
2023-04-13T11:41:07.979Z,129.38
2023-04-13T11:41:55.803Z,118.13
2023-04-13T11:42:55.787Z,106.88
2023-04-13T11:43:55.777Z,101.25
2023-04-13T11:44:55.766Z,90.00
2023-04-13T11:45:55.848Z,84.38
2023-04-13T11:46:55.735Z,84.38
2023-04-13T11:47:55.768Z,84.38
2023-04-13T11:48:55.713Z,84.38
2023-04-13T11:49:55.728Z,84.38
2023-04-13T11:50:55.729Z,84.38
2023-04-13T11:51:55.677Z,84.38
2023-04-13T11:52:55.675Z,84.38
2023-04-13T11:53:55.717Z,78.75
2023-04-13T11:54:55.865Z,73.13
2023-04-13T11:55:55.665Z,67.50
2023-04-13T11:56:55.728Z,67.50
2023-04-13T11:57:55.660Z,67.50
2023-04-13T11:58:55.628Z,73.13
2023-04-13T11:59:55.663Z,78.75
2023-04-13T12:00:59.895Z,90.00
2023-04-13T12:04:04.784Z,157.50
2023-04-13T12:04:55.744Z,112.50
2023-04-13T12:05:55.719Z,101.25
2023-04-13T12:06:56.110Z,95.63
2023-04-13T12:07:56.079Z,90.00
2023-04-13T12:08:59.885Z,90.00
2023-04-13T12:09:58.314Z,90.00
2023-04-13T12:11:20.111Z,95.63
2023-04-13T12:12:20.593Z,101.25
2023-04-13T12:12:57.012Z,112.50
2023-04-13T12:15:12.380Z,129.38
2023-04-13T12:16:06.241Z,140.63
2023-04-13T12:17:06.285Z,180.00
2023-04-13T12:17:58.166Z,185.63
2023-04-13T12:18:56.987Z,196.88
2023-04-13T12:19:57.553Z,191.25
2023-04-13T12:20:55.449Z,185.63
2023-04-13T12:21:55.997Z,168.75
2023-04-13T12:23:03.066Z,163.13
2023-04-13T12:23:55.468Z,140.63
2023-04-13T12:24:56.750Z,151.88
2023-04-13T12:25:55.403Z,135.00
2023-04-13T12:27:55.411Z,106.88
2023-04-13T12:28:55.402Z,101.25
2023-04-13T12:29:55.395Z,95.63
2023-04-13T12:30:55.414Z,90.00
2023-04-13T12:31:55.452Z,78.75
2023-04-13T12:32:55.471Z,101.25
2023-04-13T12:33:55.334Z,129.38
2023-04-13T12:34:55.330Z,78.75
2023-04-13T12:35:55.307Z,135.00
2023-04-13T12:36:55.317Z,135.00
2023-04-13T12:37:55.346Z,135.00
2023-04-13T12:38:55.293Z,90.00
2023-04-13T12:39:55.316Z,118.13
2023-04-13T12:40:55.492Z,146.25
2023-04-13T12:41:55.284Z,106.88
2023-04-13T12:42:55.324Z,101.25
2023-04-13T12:43:55.279Z,106.88
2023-04-13T12:44:55.317Z,112.50
2023-04-13T12:45:55.289Z,112.50
2023-04-13T12:46:55.242Z,112.50
2023-04-13T12:47:55.319Z,123.75
2023-04-13T12:48:55.281Z,129.38
2023-04-13T12:49:55.403Z,135.00
2023-04-13T12:50:55.227Z,135.00
2023-04-13T12:51:55.234Z,185.63
2023-04-13T12:52:55.208Z,140.63
2023-04-13T12:53:55.199Z,135.00
2023-04-13T12:54:55.183Z,135.00
2023-04-13T12:55:55.142Z,140.63
2023-04-13T12:56:55.170Z,118.13
2023-04-13T12:57:55.174Z,106.88
2023-04-13T12:58:55.158Z,106.88
2023-04-13T12:59:55.330Z,101.25
2023-04-13T13:00:55.193Z,95.63
2023-04-13T13:01:55.195Z,90.00
2023-04-13T13:03:06.107Z,90.00